Time;durP1;ratioP1;P1;durP2;ratioP2;P2;SDS_P1;SDS_P2;PMS_P1;PMS_P2;Temp;Humidity;BMP_temperature;BMP_pressure;BME280_temperature;BME280_humidity;BME280_pressure;Samples;Min_cycle;Max_cycle;Signal;HPM_P1;HPM_P2
2021/01/27 00:00:43;;;;;;;30.73;16.00;;;2.10;99.90;;;;;;5004527;28;20698;-86
2021/01/27 00:03:10;;;;;;;30.77;16.30;;;2.20;99.90;;;;;;5010279;28;20204;-86
2021/01/27 00:05:39;;;;;;;31.60;17.07;;;2.20;99.90;;;;;;5009911;28;20275;-86
2021/01/27 00:08:06;;;;;;;30.63;16.50;;;2.20;99.90;;;;;;5005731;28;20291;-86
2021/01/27 00:10:35;;;;;;;31.77;17.10;;;2.20;99.90;;;;;;5010180;28;20224;-87
2021/01/27 00:13:02;;;;;;;31.40;16.00;;;2.20;99.90;;;;;;5007912;28;20609;-85
2021/01/27 00:15:30;;;;;;;32.90;17.27;;;2.30;99.90;;;;;;5009906;28;20287;-88
2021/01/27 00:17:57;;;;;;;30.67;16.47;;;2.20;99.90;;;;;;5009105;28;20297;-87
2021/01/27 00:20:25;;;;;;;28.80;16.27;;;2.20;99.90;;;;;;5009702;28;20311;-87
2021/01/27 00:22:52;;;;;;;30.63;17.43;;;2.30;99.90;;;;;;5008243;28;20291;-87
2021/01/27 00:25:21;;;;;;;33.10;18.50;;;2.30;99.90;;;;;;5009619;28;20204;-87
2021/01/27 00:27:48;;;;;;;30.97;16.80;;;2.30;99.90;;;;;;5010870;28;20228;-87
2021/01/27 00:30:16;;;;;;;31.80;17.00;;;2.40;99.90;;;;;;5008663;28;20256;-85
2021/01/27 00:32:42;;;;;;;34.23;17.70;;;2.30;99.90;;;;;;5009494;28;20742;-86
2021/01/27 00:35:10;;;;;;;34.27;18.17;;;2.30;99.90;;;;;;5005855;28;20350;-86
2021/01/27 00:37:36;;;;;;;35.60;18.07;;;2.30;99.90;;;;;;5009978;28;20266;-86
2021/01/27 00:40:03;;;;;;;33.87;18.53;;;2.50;99.90;;;;;;5010985;28;20657;-86
2021/01/27 00:42:30;;;;;;;31.93;17.30;;;2.40;99.90;;;;;;5011207;28;20246;-85
2021/01/27 00:44:57;;;;;;;33.87;17.20;;;2.40;99.90;;;;;;5011483;28;20651;-86
2021/01/27 00:47:23;;;;;;;32.13;16.83;;;2.40;99.90;;;;;;5011452;28;20728;-86
2021/01/27 00:49:50;;;;;;;34.37;19.20;;;2.30;99.90;;;;;;5005849;28;20726;-86
2021/01/27 00:52:16;;;;;;;34.23;18.97;;;2.40;99.90;;;;;;5010312;28;20303;-85
2021/01/27 00:54:42;;;;;;;36.77;17.67;;;2.30;99.90;;;;;;5010291;28;20208;-86
2021/01/27 00:57:09;;;;;;;33.47;18.10;;;2.30;99.90;;;;;;5005647;28;20295;-86
2021/01/27 00:59:35;;;;;;;36.23;18.93;;;2.30;99.90;;;;;;5008696;28;20621;-86
2021/01/27 01:02:02;;;;;;;35.57;19.13;;;2.20;99.90;;;;;;5001242;28;20303;-85
2021/01/27 01:04:29;;;;;;;35.83;19.17;;;2.20;99.90;;;;;;5000987;28;20278;-87
2021/01/27 01:06:55;;;;;;;35.33;19.87;;;2.10;99.90;;;;;;5007520;28;20228;-86
2021/01/27 01:09:22;;;;;;;32.00;17.60;;;2.10;99.90;;;;;;5004161;28;20658;-85
2021/01/27 01:11:48;;;;;;;37.73;18.80;;;2.00;99.90;;;;;;5017067;28;20303;-87
2021/01/27 01:14:14;;;;;;;33.00;18.10;;;1.90;99.90;;;;;;5010712;28;20342;-86
2021/01/27 01:16:41;;;;;;;35.43;18.87;;;1.90;99.90;;;;;;5018579;28;20210;-86
2021/01/27 01:19:08;;;;;;;36.87;19.03;;;1.90;99.90;;;;;;5015068;28;20240;-86
2021/01/27 01:21:34;;;;;;;35.20;20.37;;;1.90;99.90;;;;;;5015295;28;20254;-86
2021/01/27 01:24:01;;;;;;;37.07;19.70;;;1.90;99.90;;;;;;5015245;28;20645;-86
2021/01/27 01:26:27;;;;;;;36.07;19.03;;;1.80;99.90;;;;;;5011596;28;20212;-86
2021/01/27 01:28:54;;;;;;;35.93;18.60;;;1.80;99.90;;;;;;5007483;28;20883;-86
2021/01/27 01:31:20;;;;;;;37.77;20.50;;;1.80;99.90;;;;;;5007110;28;20311;-87
2021/01/27 01:33:46;;;;;;;39.73;21.23;;;1.80;99.90;;;;;;5017807;28;20247;-87
2021/01/27 01:36:14;;;;;;;39.27;20.73;;;1.90;99.90;;;;;;5011691;28;20287;-86
2021/01/27 01:38:40;;;;;;;37.90;21.20;;;2.10;99.90;;;;;;5013363;28;20299;-87
2021/01/27 01:41:07;;;;;;;36.87;20.87;;;2.00;99.90;;;;;;5021222;28;20274;-86
2021/01/27 01:43:35;;;;;;;41.73;21.93;;;1.80;99.90;;;;;;5015882;28;20204;-86
2021/01/27 01:46:03;;;;;;;41.57;22.50;;;1.70;99.90;;;;;;5016061;28;20291;-86
2021/01/27 01:48:34;;;;;;;42.60;22.97;;;2.00;99.90;;;;;;5014669;28;20659;-86
2021/01/27 01:51:05;;;;;;;41.37;21.60;;;1.90;99.90;;;;;;5014549;28;20244;-87
2021/01/27 01:53:32;;;;;;;41.13;22.03;;;1.80;99.90;;;;;;5009051;28;20232;-86
2021/01/27 01:56:04;;;;;;;46.37;24.07;;;1.70;99.90;;;;;;5021510;28;20287;-88
2021/01/27 01:58:31;;;;;;;46.00;24.30;;;1.80;99.90;;;;;;5016317;28;20239;-87
2021/01/27 02:01:00;;;;;;;45.60;24.60;;;1.90;99.90;;;;;;5020918;28;20242;-87
2021/01/27 02:03:28;;;;;;;44.57;22.97;;;1.90;99.90;;;;;;5014181;28;20268;-86
2021/01/27 02:05:55;;;;;;;43.70;22.80;;;1.80;99.90;;;;;;5014674;28;20359;-87
2021/01/27 02:08:22;;;;;;;45.57;24.37;;;1.90;99.90;;;;;;5016232;28;20339;-86
2021/01/27 02:10:49;;;;;;;44.40;24.33;;;1.90;99.90;;;;;;5013766;28;20220;-86
2021/01/27 02:13:37;;;;;;;45.50;25.27;;;1.90;99.90;;;;;;5021485;28;20227;-86
2021/01/27 02:16:31;;;;;;;47.57;25.40;;;2.00;99.90;;;;;;5010613;28;20236;-87
2021/01/27 02:19:22;;;;;;;46.67;25.80;;;2.00;99.90;;;;;;5020865;28;20208;-86
2021/01/27 02:22:36;;;;;;;47.40;26.13;;;2.10;99.90;;;;;;5010405;28;20300;-86
2021/01/27 02:25:49;;;;;;;47.43;25.77;;;2.20;99.90;;;;;;5000066;28;20247;-86
2021/01/27 02:28:42;;;;;;;46.90;25.27;;;2.20;99.90;;;;;;5014262;28;20206;-86
2021/01/27 02:31:16;;;;;;;46.00;24.93;;;2.30;99.90;;;;;;5014162;28;20315;-87
2021/01/27 02:34:13;;;;;;;51.33;26.97;;;2.40;99.90;;;;;;5011825;28;20633;-87
2021/01/27 02:36:46;;;;;;;47.57;25.80;;;2.30;99.90;;;;;;5013407;28;20216;-87
2021/01/27 02:39:18;;;;;;;47.57;26.43;;;2.30;99.90;;;;;;5011350;28;20281;-85
2021/01/27 02:41:53;;;;;;;47.80;25.63;;;2.30;99.90;;;;;;5014037;28;20214;-86
2021/01/27 02:44:25;;;;;;;48.77;25.63;;;2.50;99.90;;;;;;5013974;28;20320;-86
2021/01/27 02:46:53;;;;;;;49.03;26.30;;;2.20;99.90;;;;;;5010043;28;20297;-88
2021/01/27 02:49:27;;;;;;;47.40;27.13;;;2.20;99.90;;;;;;5021261;28;20764;-86
2021/01/27 02:52:00;;;;;;;49.50;25.90;;;2.20;99.90;;;;;;5012023;28;20308;-87
2021/01/27 02:54:31;;;;;;;46.50;26.13;;;2.30;99.90;;;;;;5006236;28;20699;-87
2021/01/27 02:57:02;;;;;;;46.90;26.37;;;2.30;99.90;;;;;;5013603;28;20672;-86
2021/01/27 02:59:35;;;;;;;45.77;25.57;;;2.30;99.90;;;;;;5023541;28;20279;-86
2021/01/27 03:02:08;;;;;;;48.00;27.37;;;2.40;99.90;;;;;;5011897;28;20295;-86
2021/01/27 03:04:39;;;;;;;46.73;24.63;;;2.40;99.90;;;;;;5013348;28;20207;-87
2021/01/27 03:07:09;;;;;;;47.03;24.67;;;2.40;99.90;;;;;;5018329;28;20242;-86
2021/01/27 03:09:40;;;;;;;44.00;24.17;;;2.30;99.90;;;;;;5011977;28;20350;-87
2021/01/27 03:12:08;;;;;;;44.50;24.53;;;2.30;99.90;;;;;;5013363;28;20608;-88
2021/01/27 03:14:35;;;;;;;44.50;23.27;;;2.20;99.90;;;;;;5016296;28;20303;-86
2021/01/27 03:17:04;;;;;;;46.07;25.27;;;2.20;99.90;;;;;;5017690;28;20280;-86
2021/01/27 03:19:37;;;;;;;43.90;25.20;;;2.20;99.90;;;;;;5014463;28;20299;-87
2021/01/27 03:22:10;;;;;;;42.47;24.17;;;2.10;99.90;;;;;;5012138;28;20283;-87
2021/01/27 03:24:45;;;;;;;39.60;24.07;;;2.10;99.90;;;;;;5010665;28;20224;-86
2021/01/27 03:27:15;;;;;;;41.60;24.53;;;2.00;99.90;;;;;;5012343;28;20294;-87
2021/01/27 03:29:47;;;;;;;41.97;23.80;;;2.00;99.90;;;;;;5011649;28;20263;-87
2021/01/27 03:32:20;;;;;;;40.87;23.23;;;2.00;99.90;;;;;;5011840;28;20319;-87
2021/01/27 03:34:54;;;;;;;41.60;22.80;;;1.90;99.90;;;;;;5012282;28;20208;-87
2021/01/27 03:37:27;;;;;;;39.60;21.57;;;1.90;99.90;;;;;;5012575;28;20204;-87
2021/01/27 03:40:04;;;;;;;39.07;22.30;;;1.90;99.90;;;;;;5010816;28;20311;-86
2021/01/27 03:42:37;;;;;;;40.80;22.80;;;2.00;99.90;;;;;;4998923;28;20244;-86
2021/01/27 03:45:07;;;;;;;37.93;22.00;;;2.00;99.90;;;;;;5008849;28;20224;-87
2021/01/27 03:47:39;;;;;;;35.47;20.47;;;2.10;99.90;;;;;;5005644;28;20208;-86
2021/01/27 03:50:11;;;;;;;36.60;20.97;;;2.30;99.90;;;;;;5012028;28;20220;-86
2021/01/27 03:52:41;;;;;;;39.67;21.30;;;2.20;99.90;;;;;;5010169;28;20738;-88
2021/01/27 03:55:18;;;;;;;39.67;20.70;;;2.40;99.90;;;;;;5008628;28;20287;-87
2021/01/27 03:57:53;;;;;;;35.83;20.30;;;2.30;99.90;;;;;;5006990;28;20207;-86
2021/01/27 04:00:20;;;;;;;35.60;19.53;;;2.40;99.90;;;;;;5009847;28;20228;-87
2021/01/27 04:03:00;;;;;;;35.67;20.50;;;2.30;99.90;;;;;;5010984;28;20291;-87
2021/01/27 04:05:26;;;;;;;36.47;20.47;;;2.30;99.90;;;;;;5004885;28;20206;-87
2021/01/27 04:07:53;;;;;;;35.87;20.67;;;2.30;99.90;;;;;;5011727;28;20208;-86
2021/01/27 04:10:20;;;;;;;36.07;18.30;;;2.30;99.90;;;;;;5013104;28;20281;-86
2021/01/27 04:12:46;;;;;;;35.53;19.20;;;2.30;99.90;;;;;;5011691;28;20696;-86
2021/01/27 04:15:13;;;;;;;31.40;17.23;;;2.40;99.90;;;;;;5011642;28;20291;-86
2021/01/27 04:17:40;;;;;;;33.67;19.17;;;2.40;99.90;;;;;;5011794;28;20204;-87
2021/01/27 04:20:07;;;;;;;32.40;18.83;;;2.40;99.90;;;;;;5011466;28;20242;-86
2021/01/27 04:22:33;;;;;;;32.73;19.30;;;2.30;99.90;;;;;;5011948;28;20456;-86
2021/01/27 04:25:01;;;;;;;29.63;16.60;;;2.40;99.90;;;;;;5012092;28;20212;-87
2021/01/27 04:27:27;;;;;;;32.17;19.30;;;2.30;99.90;;;;;;5010081;28;20204;-86
2021/01/27 04:29:53;;;;;;;30.80;17.80;;;2.40;99.90;;;;;;5014134;28;20307;-86
2021/01/27 04:32:20;;;;;;;29.47;17.60;;;2.30;99.90;;;;;;5011381;28;20251;-86
2021/01/27 04:34:47;;;;;;;31.97;18.87;;;2.30;99.90;;;;;;5011608;28;20247;-86
2021/01/27 04:37:13;;;;;;;31.87;17.50;;;2.10;99.90;;;;;;5011559;28;20319;-86
2021/01/27 04:39:39;;;;;;;29.93;17.20;;;2.10;99.90;;;;;;5011028;28;20660;-86
2021/01/27 04:42:09;;;;;;;30.60;17.07;;;2.00;99.90;;;;;;5011628;28;20208;-87
2021/01/27 04:44:35;;;;;;;28.73;16.83;;;1.90;99.90;;;;;;5007132;28;20272;-85
2021/01/27 04:47:08;;;;;;;33.30;18.17;;;1.90;99.90;;;;;;5013543;28;20633;-85
2021/01/27 04:49:41;;;;;;;29.00;16.33;;;2.20;99.90;;;;;;5010856;28;20632;-86
2021/01/27 04:52:13;;;;;;;29.77;16.53;;;2.00;99.90;;;;;;5011559;28;20238;-85
2021/01/27 04:55:00;;;;;;;30.10;16.90;;;2.00;99.90;;;;;;5008767;28;20232;-85
2021/01/27 04:57:56;;;;;;;27.30;15.57;;;2.00;99.90;;;;;;4990417;28;20204;-87
2021/01/27 05:00:44;;;;;;;27.47;15.63;;;2.00;99.90;;;;;;5009217;28;20312;-86
2021/01/27 05:03:50;;;;;;;27.30;15.53;;;2.00;99.90;;;;;;5010122;28;20246;-87
2021/01/27 05:06:21;;;;;;;31.13;15.80;;;2.00;99.90;;;;;;5008561;28;20700;-86
2021/01/27 05:08:56;;;;;;;30.30;16.70;;;2.10;99.90;;;;;;5007908;28;20642;-87
2021/01/27 05:11:24;;;;;;;29.00;15.73;;;1.90;99.90;;;;;;5007680;28;20235;-87
2021/01/27 05:13:54;;;;;;;29.53;15.43;;;1.90;99.90;;;;;;5011498;28;20308;-86
2021/01/27 05:16:23;;;;;;;30.27;17.30;;;1.90;99.90;;;;;;5010896;28;20372;-87
2021/01/27 05:18:51;;;;;;;29.73;17.77;;;2.00;99.90;;;;;;5014684;28;20212;-87
2021/01/27 05:21:29;;;;;;;27.67;16.20;;;2.00;99.90;;;;;;5013303;28;20232;-86
2021/01/27 05:23:56;;;;;;;30.13;15.73;;;1.90;99.90;;;;;;5015128;28;20214;-86
2021/01/27 05:26:26;;;;;;;26.27;15.07;;;2.00;99.90;;;;;;5015076;28;20287;-87
2021/01/27 05:29:01;;;;;;;30.17;15.43;;;1.90;99.90;;;;;;5015118;28;20314;-86
2021/01/27 05:32:02;;;;;;;28.17;15.40;;;1.90;99.90;;;;;;5014704;28;20319;-87
2021/01/27 05:34:36;;;;;;;28.83;15.20;;;1.90;99.90;;;;;;5015458;28;20245;-86
2021/01/27 05:37:05;;;;;;;27.33;15.53;;;2.10;99.90;;;;;;5014867;28;20258;-86
2021/01/27 05:39:31;;;;;;;26.47;15.07;;;2.00;99.90;;;;;;5015030;28;20214;-87
2021/01/27 05:42:13;;;;;;;28.10;15.13;;;2.10;99.90;;;;;;5014839;28;20215;-86
2021/01/27 05:44:41;;;;;;;28.47;14.70;;;2.00;99.90;;;;;;5014639;28;20231;-86
2021/01/27 05:47:22;;;;;;;26.03;14.40;;;2.10;99.90;;;;;;5015103;28;20225;-86
2021/01/27 05:49:49;;;;;;;27.93;14.83;;;2.00;99.90;;;;;;5015739;28;20228;-86
2021/01/27 05:52:18;;;;;;;26.23;13.80;;;2.00;99.90;;;;;;5025121;28;20611;-85
2021/01/27 05:54:45;;;;;;;28.70;15.47;;;2.10;99.90;;;;;;5014859;28;20284;-86
2021/01/27 05:57:12;;;;;;;26.13;15.20;;;2.10;99.90;;;;;;5025849;28;20208;-85
2021/01/27 05:59:39;;;;;;;25.53;14.67;;;2.10;99.90;;;;;;5008473;28;20236;-86
2021/01/27 06:02:07;;;;;;;28.60;14.77;;;2.10;99.90;;;;;;5015101;28;20590;-86
2021/01/27 06:04:35;;;;;;;27.10;14.70;;;2.10;99.90;;;;;;5008776;28;20664;-87
2021/01/27 06:07:04;;;;;;;25.70;14.60;;;2.10;99.90;;;;;;5024562;28;20287;-86
2021/01/27 06:09:40;;;;;;;24.57;14.03;;;2.10;99.90;;;;;;5010935;28;20740;-87
2021/01/27 06:12:11;;;;;;;25.40;14.77;;;2.10;99.90;;;;;;5014258;28;20228;-86
2021/01/27 06:14:38;;;;;;;26.53;14.17;;;2.00;99.90;;;;;;5013620;28;20262;-86
2021/01/27 06:17:26;;;;;;;27.13;14.70;;;2.00;99.90;;;;;;5014530;28;20635;-86
2021/01/27 06:20:01;;;;;;;27.43;13.27;;;2.10;99.90;;;;;;5013457;28;20234;-86
2021/01/27 06:22:46;;;;;;;25.50;13.73;;;2.20;99.90;;;;;;5014796;28;20208;-87
2021/01/27 06:25:27;;;;;;;26.30;14.30;;;2.00;99.90;;;;;;5010328;28;20240;-86
2021/01/27 06:28:14;;;;;;;22.57;13.27;;;2.00;99.90;;;;;;5017642;28;20232;-85
2021/01/27 06:30:52;;;;;;;23.80;13.50;;;2.00;99.90;;;;;;5011184;28;20314;-87
2021/01/27 06:33:39;;;;;;;24.90;13.97;;;2.10;99.90;;;;;;5022702;28;20310;-86
2021/01/27 06:36:18;;;;;;;26.40;14.00;;;2.10;99.90;;;;;;5013437;28;20255;-86
2021/01/27 06:39:17;;;;;;;23.30;12.30;;;2.10;99.90;;;;;;5013768;28;20208;-86
2021/01/27 06:42:09;;;;;;;25.27;13.77;;;2.10;99.90;;;;;;5008128;28;20292;-86
2021/01/27 06:44:46;;;;;;;24.17;12.73;;;2.00;99.90;;;;;;5016016;28;20290;-87
2021/01/27 06:47:36;;;;;;;22.03;12.40;;;2.10;99.90;;;;;;5023422;28;20276;-85
2021/01/27 06:50:13;;;;;;;21.20;11.37;;;2.00;99.90;;;;;;5015899;28;20689;-86
2021/01/27 06:53:14;;;;;;;24.10;12.33;;;2.10;99.90;;;;;;5003643;28;20656;-86
2021/01/27 06:55:54;;;;;;;23.03;11.57;;;2.20;99.90;;;;;;5008059;28;20211;-86
2021/01/27 06:58:49;;;;;;;23.53;12.27;;;2.10;99.90;;;;;;5013772;28;20219;-86
2021/01/27 07:01:44;;;;;;;20.90;11.77;;;2.10;99.90;;;;;;5007585;28;20305;-87
2021/01/27 07:04:42;;;;;;;23.67;12.17;;;2.10;99.90;;;;;;5005981;28;20744;-86
2021/01/27 07:07:46;;;;;;;20.73;10.97;;;2.10;99.90;;;;;;5011578;28;20208;-86
2021/01/27 07:10:48;;;;;;;22.20;11.67;;;2.10;99.90;;;;;;4999650;28;20232;-86
2021/01/27 07:13:31;;;;;;;21.10;10.87;;;2.20;99.90;;;;;;5013133;28;20220;-87
2021/01/27 07:16:01;;;;;;;20.43;10.47;;;2.20;99.90;;;;;;5013569;28;20232;-87
2021/01/27 07:18:58;;;;;;;21.50;10.20;;;2.20;99.90;;;;;;5002270;28;20283;-87
2021/01/27 07:21:29;;;;;;;17.50;9.67;;;2.10;99.90;;;;;;5013177;28;20232;-87
2021/01/27 07:24:02;;;;;;;19.90;10.33;;;2.10;99.90;;;;;;5013818;28;20275;-88
2021/01/27 07:26:36;;;;;;;17.87;9.80;;;2.40;99.90;;;;;;5022705;28;20296;-88
2021/01/27 07:29:07;;;;;;;18.07;9.30;;;2.20;99.90;;;;;;5013946;28;20645;-86
2021/01/27 07:31:39;;;;;;;18.20;10.17;;;2.30;99.90;;;;;;5011651;28;20303;-86
2021/01/27 07:34:13;;;;;;;15.80;8.43;;;2.30;99.90;;;;;;5013018;28;20756;-86
2021/01/27 07:36:47;;;;;;;17.80;9.43;;;2.30;99.90;;;;;;5016469;28;20283;-85
2021/01/27 07:39:21;;;;;;;16.27;8.80;;;2.40;99.90;;;;;;5011912;28;20257;-85
2021/01/27 07:41:58;;;;;;;15.17;8.53;;;2.30;99.90;;;;;;5013191;28;20649;-87
2021/01/27 07:44:24;;;;;;;21.20;8.83;;;2.30;99.90;;;;;;5015431;28;20459;-86
2021/01/27 07:46:59;;;;;;;16.27;9.00;;;2.60;99.90;;;;;;5014540;28;20218;-86
2021/01/27 07:49:37;;;;;;;16.40;8.60;;;2.40;99.90;;;;;;5012957;28;20203;-86
2021/01/27 07:52:12;;;;;;;15.07;8.03;;;2.40;99.90;;;;;;5014602;28;20291;-85
2021/01/27 07:54:44;;;;;;;14.60;8.23;;;2.40;99.90;;;;;;5019021;28;20282;-87
2021/01/27 07:57:26;;;;;;;13.40;7.83;;;2.40;99.90;;;;;;5012369;28;20214;-86
2021/01/27 08:00:01;;;;;;;17.67;8.83;;;2.40;99.90;;;;;;5013424;28;20228;-86
2021/01/27 08:02:37;;;;;;;16.23;8.33;;;2.40;99.90;;;;;;5008287;28;20283;-86
2021/01/27 08:05:13;;;;;;;17.57;9.30;;;2.40;99.90;;;;;;5013004;28;20207;-88
2021/01/27 08:07:59;;;;;;;15.73;8.60;;;2.50;99.90;;;;;;5011250;28;20219;-86
2021/01/27 08:10:30;;;;;;;15.97;8.40;;;2.50;99.90;;;;;;5009364;28;20224;-88
2021/01/27 08:13:01;;;;;;;18.00;9.07;;;2.50;99.90;;;;;;5013568;28;20693;-87
2021/01/27 08:15:58;;;;;;;16.20;9.23;;;2.40;99.90;;;;;;5011269;28;20204;-87
2021/01/27 08:18:26;;;;;;;18.03;9.50;;;2.50;99.90;;;;;;5008218;28;20200;-87
2021/01/27 08:21:29;;;;;;;20.03;10.20;;;2.50;99.90;;;;;;5013949;28;20612;-87
2021/01/27 08:23:56;;;;;;;19.47;10.73;;;2.60;99.90;;;;;;5013323;28;20228;-87
2021/01/27 08:26:52;;;;;;;23.93;14.03;;;2.60;99.90;;;;;;5012513;28;20259;-86
2021/01/27 08:29:36;;;;;;;21.23;12.33;;;2.60;99.90;;;;;;5011535;28;20216;-87
2021/01/27 08:32:24;;;;;;;23.90;13.00;;;2.60;99.90;;;;;;5012738;28;20236;-87
2021/01/27 08:34:53;;;;;;;20.30;11.83;;;2.60;99.90;;;;;;5012077;28;20213;-87
2021/01/27 08:37:24;;;;;;;22.40;11.73;;;2.80;99.90;;;;;;5012689;28;20296;-86
2021/01/27 08:40:18;;;;;;;22.30;11.80;;;2.80;99.90;;;;;;5012187;28;20243;-87
2021/01/27 08:42:50;;;;;;;27.93;13.33;;;2.70;99.90;;;;;;5011826;28;20680;-86
2021/01/27 08:45:26;;;;;;;20.53;11.23;;;2.80;99.90;;;;;;5009426;28;20242;-87
2021/01/27 08:48:04;;;;;;;18.87;10.33;;;2.80;99.90;;;;;;5007055;28;20203;-86
2021/01/27 08:50:47;;;;;;;18.60;9.80;;;2.80;99.90;;;;;;5007541;28;20236;-87
2021/01/27 08:53:23;;;;;;;16.73;9.47;;;2.90;99.90;;;;;;5008941;28;20740;-86
2021/01/27 08:55:58;;;;;;;14.93;8.50;;;3.10;99.90;;;;;;5009065;28;20238;-85
2021/01/27 08:58:37;;;;;;;16.57;9.53;;;2.90;99.90;;;;;;5010481;28;20212;-87
2021/01/27 09:01:08;;;;;;;15.07;9.40;;;2.90;99.90;;;;;;5004683;28;20225;-86
2021/01/27 09:04:02;;;;;;;16.00;9.17;;;2.90;99.90;;;;;;5013008;28;20262;-87
2021/01/27 09:06:44;;;;;;;15.13;8.63;;;2.90;99.90;;;;;;5012631;28;20215;-86
2021/01/27 09:09:37;;;;;;;15.90;8.27;;;2.90;99.90;;;;;;5009992;28;20307;-86
2021/01/27 09:12:10;;;;;;;14.27;8.37;;;2.90;99.90;;;;;;5011344;28;20554;-87
2021/01/27 09:14:52;;;;;;;15.17;8.33;;;3.20;99.90;;;;;;5012113;28;20713;-86
2021/01/27 09:17:23;;;;;;;16.93;8.67;;;3.10;99.90;;;;;;5009043;28;20215;-86
2021/01/27 09:19:57;;;;;;;13.53;8.50;;;3.00;99.90;;;;;;5011535;28;20231;-86
2021/01/27 09:22:39;;;;;;;14.77;8.63;;;2.90;99.90;;;;;;5011694;28;20200;-86
2021/01/27 09:25:06;;;;;;;18.23;9.23;;;2.90;99.90;;;;;;5011553;28;20720;-86
2021/01/27 09:27:33;;;;;;;17.60;9.03;;;2.80;99.90;;;;;;5011654;28;20282;-85
2021/01/27 09:30:09;;;;;;;12.67;8.80;;;2.80;99.90;;;;;;5011398;28;20248;-86
2021/01/27 09:32:38;;;;;;;14.83;8.90;;;2.70;99.90;;;;;;5010845;28;20220;-86
2021/01/27 09:35:22;;;;;;;15.67;8.70;;;2.70;99.90;;;;;;5011221;28;20266;-85
2021/01/27 09:38:04;;;;;;;19.13;10.50;;;2.80;99.90;;;;;;5010208;28;20662;-86
2021/01/27 09:40:36;;;;;;;15.27;9.33;;;2.90;99.90;;;;;;5011614;28;20228;-86
2021/01/27 09:43:08;;;;;;;15.80;9.00;;;2.80;99.90;;;;;;5014261;28;20209;-86
2021/01/27 09:45:40;;;;;;;15.33;9.10;;;2.80;99.90;;;;;;5011052;28;20253;-86
2021/01/27 09:48:10;;;;;;;16.80;9.40;;;2.80;99.90;;;;;;5011764;28;20216;-86
2021/01/27 09:53:30;;;;;;;19.00;10.87;;;3.00;99.90;;;;;;4992033;28;20710;-86
2021/01/27 09:55:59;;;;;;;16.53;9.63;;;3.00;99.90;;;;;;5009135;28;20201;-88
2021/01/27 09:58:29;;;;;;;15.70;9.20;;;3.10;99.90;;;;;;5012006;28;20553;-87
2021/01/27 10:01:02;;;;;;;15.77;9.43;;;3.70;99.90;;;;;;5010609;28;20224;-88
2021/01/27 10:03:30;;;;;;;16.63;9.13;;;3.00;99.90;;;;;;5019403;28;20208;-88
2021/01/27 10:06:01;;;;;;;15.10;8.40;;;3.00;99.90;;;;;;5016578;28;20201;-87
2021/01/27 10:08:35;;;;;;;14.57;8.57;;;3.10;99.90;;;;;;5010891;28;20212;-88
2021/01/27 10:11:12;;;;;;;12.70;7.80;;;3.10;99.90;;;;;;5014788;28;20311;-87
2021/01/27 10:13:47;;;;;;;16.33;7.57;;;3.80;99.90;;;;;;5014644;28;20232;-86
2021/01/27 10:16:18;;;;;;;15.50;8.63;;;3.20;99.90;;;;;;5013258;28;20208;-87
2021/01/27 10:18:52;;;;;;;13.77;7.40;;;3.30;99.90;;;;;;5014154;28;20697;-90
2021/01/27 10:21:19;;;;;;;12.33;7.23;;;3.60;99.90;;;;;;5007267;28;20240;-87
2021/01/27 10:23:47;;;;;;;14.07;8.03;;;3.50;99.90;;;;;;5006899;28;20270;-87
2021/01/27 10:26:35;;;;;;;13.10;7.63;;;3.80;99.90;;;;;;5009655;28;20619;-87
2021/01/27 10:29:31;;;;;;;13.17;7.70;;;4.00;99.90;;;;;;5008524;28;20211;-85
2021/01/27 10:32:35;;;;;;;11.93;7.07;;;4.20;99.90;;;;;;5005265;28;20208;-86
2021/01/27 10:35:32;;;;;;;11.67;6.83;;;4.20;99.90;;;;;;5010626;28;20204;-87
2021/01/27 10:38:23;;;;;;;11.70;6.80;;;4.10;99.90;;;;;;5006099;28;20292;-83
2021/01/27 10:41:11;;;;;;;11.43;6.93;;;4.00;99.90;;;;;;5005973;28;20269;-84
2021/01/27 10:43:54;;;;;;;11.37;6.73;;;3.80;99.90;;;;;;5006900;28;20251;-83
2021/01/27 10:46:29;;;;;;;11.23;6.80;;;3.80;99.90;;;;;;5007982;28;20701;-82
2021/01/27 10:49:01;;;;;;;10.93;6.80;;;3.70;99.90;;;;;;5010577;28;20687;-85
2021/01/27 10:51:38;;;;;;;13.67;6.87;;;3.70;99.90;;;;;;5008642;28;20220;-85
2021/01/27 10:54:05;;;;;;;10.73;6.70;;;3.60;99.90;;;;;;5007353;28;20220;-86
2021/01/27 10:56:31;;;;;;;11.13;6.53;;;3.60;99.90;;;;;;5010867;28;20731;-88
2021/01/27 10:58:58;;;;;;;14.57;7.30;;;3.70;99.90;;;;;;5011155;28;20204;-88
2021/01/27 11:01:27;;;;;;;12.67;6.67;;;3.60;99.90;;;;;;5010244;28;20275;-87
2021/01/27 11:03:57;;;;;;;12.87;7.43;;;3.60;99.90;;;;;;5010560;28;20212;-85
2021/01/27 11:06:34;;;;;;;11.07;6.90;;;3.60;99.90;;;;;;5005052;28;20220;-85
2021/01/27 11:09:02;;;;;;;12.77;7.23;;;3.50;99.90;;;;;;5010202;28;20336;-86
2021/01/27 11:11:29;;;;;;;12.03;7.40;;;3.70;99.90;;;;;;5007425;28;20232;-86
2021/01/27 11:14:05;;;;;;;13.63;7.43;;;3.60;99.90;;;;;;5007300;28;20235;-90
2021/01/27 11:16:32;;;;;;;11.53;7.00;;;3.60;99.90;;;;;;5011291;28;20269;-89
2021/01/27 11:19:02;;;;;;;13.93;8.03;;;3.80;99.90;;;;;;5005945;28;20240;-86
2021/01/27 11:21:32;;;;;;;12.13;7.23;;;3.60;99.90;;;;;;5009918;28;20224;-85
2021/01/27 11:24:00;;;;;;;11.83;7.50;;;3.60;99.90;;;;;;5008064;28;20288;-85
2021/01/27 11:26:27;;;;;;;14.07;6.73;;;3.60;99.90;;;;;;5009080;28;20240;-86
2021/01/27 11:28:53;;;;;;;11.03;6.87;;;4.10;99.90;;;;;;5006891;28;20200;-86
2021/01/27 11:31:22;;;;;;;12.47;6.73;;;3.60;99.90;;;;;;5009545;28;20235;-90
2021/01/27 11:33:51;;;;;;;10.00;6.70;;;3.60;99.90;;;;;;5008856;28;20772;-85
2021/01/27 11:36:21;;;;;;;11.30;6.53;;;3.80;99.90;;;;;;5009422;28;20664;-84
2021/01/27 11:38:52;;;;;;;10.83;6.60;;;3.60;99.90;;;;;;5005082;28;20217;-85
2021/01/27 11:41:23;;;;;;;10.67;6.17;;;3.60;99.90;;;;;;5004120;28;20294;-86
2021/01/27 11:43:52;;;;;;;9.63;6.10;;;3.50;99.90;;;;;;5009432;28;20208;-84
2021/01/27 11:46:20;;;;;;;10.60;6.73;;;3.30;99.90;;;;;;5008934;28;20209;-88
2021/01/27 11:48:47;;;;;;;8.90;5.30;;;3.30;99.90;;;;;;5007553;28;20201;-85
2021/01/27 11:51:17;;;;;;;10.53;5.90;;;3.20;99.90;;;;;;5009701;28;20227;-90
2021/01/27 11:53:43;;;;;;;9.50;5.77;;;3.20;99.90;;;;;;5010293;28;20236;-85
2021/01/27 11:59:15;;;;;;;9.17;5.83;;;3.00;99.90;;;;;;5007639;28;20291;-89
2021/01/27 12:01:48;;;;;;;8.23;5.63;;;3.00;99.90;;;;;;5011785;28;20303;-88
2021/01/27 12:04:20;;;;;;;11.20;6.10;;;2.80;99.90;;;;;;5007260;28;20747;-87
2021/01/27 12:06:59;;;;;;;10.07;5.50;;;2.90;99.90;;;;;;5011142;28;20488;-90
2021/01/27 12:09:43;;;;;;;8.40;5.40;;;3.20;99.90;;;;;;5010517;28;20212;-89
2021/01/27 12:12:18;;;;;;;9.50;5.70;;;2.90;99.90;;;;;;5011829;28;20250;-91
2021/01/27 12:14:48;;;;;;;8.53;5.73;;;2.90;99.90;;;;;;5010704;28;20199;-87
2021/01/27 12:17:19;;;;;;;8.27;5.23;;;2.90;99.90;;;;;;5010863;28;20243;-89
2021/01/27 12:20:01;;;;;;;8.67;5.80;;;2.90;99.90;;;;;;5012874;28;20228;-88
2021/01/27 12:22:35;;;;;;;9.03;5.23;;;2.80;99.90;;;;;;5009100;28;20624;-86
2021/01/27 12:25:02;;;;;;;7.73;4.93;;;2.80;99.90;;;;;;5012074;28;20222;-88
2021/01/27 12:27:29;;;;;;;6.97;4.83;;;2.80;99.90;;;;;;5009427;28;20288;-88
2021/01/27 12:29:59;;;;;;;7.40;4.67;;;2.80;99.90;;;;;;5008182;28;20274;-87
2021/01/27 12:32:25;;;;;;;6.63;4.80;;;2.70;99.90;;;;;;5013203;28;20620;-85
2021/01/27 12:35:00;;;;;;;8.93;4.97;;;3.00;99.90;;;;;;5009488;28;20207;-88
2021/01/27 12:37:38;;;;;;;7.93;4.47;;;3.30;99.90;;;;;;5011861;28;20611;-88
2021/01/27 12:40:11;;;;;;;6.93;4.50;;;3.30;99.90;;;;;;5010670;28;20224;-86
2021/01/27 12:42:42;;;;;;;6.23;4.30;;;3.10;99.90;;;;;;5018314;28;20208;-87
2021/01/27 12:45:11;;;;;;;7.37;4.67;;;3.20;99.90;;;;;;5016763;28;20696;-88
2021/01/27 12:47:37;;;;;;;5.33;3.77;;;3.30;99.90;;;;;;5015445;28;20259;-87
2021/01/27 12:50:11;;;;;;;6.47;4.23;;;3.30;99.90;;;;;;5011516;28;20220;-86
2021/01/27 12:52:38;;;;;;;6.90;4.73;;;3.30;99.90;;;;;;5012519;28;20208;-87
2021/01/27 12:55:09;;;;;;;6.80;4.23;;;3.20;99.90;;;;;;5012718;28;20200;-86
2021/01/27 12:57:40;;;;;;;6.00;4.10;;;3.30;99.90;;;;;;5009446;28;20208;-86
2021/01/27 13:00:13;;;;;;;5.43;4.07;;;3.20;99.90;;;;;;5012084;28;20220;-86
2021/01/27 13:02:46;;;;;;;6.20;4.20;;;3.30;99.90;;;;;;5013910;28;20303;-87
2021/01/27 13:05:13;;;;;;;6.07;4.23;;;3.20;99.90;;;;;;5014744;28;20207;-87
2021/01/27 13:07:40;;;;;;;8.43;4.83;;;3.20;99.90;;;;;;5012511;28;20636;-87
2021/01/27 13:10:11;;;;;;;6.30;4.30;;;3.20;99.90;;;;;;5013262;28;20751;-86
2021/01/27 13:12:39;;;;;;;6.43;4.20;;;3.20;99.90;;;;;;5013932;28;20212;-86
2021/01/27 13:15:08;;;;;;;6.03;4.47;;;3.20;99.90;;;;;;5014026;28;20214;-86
2021/01/27 13:17:34;;;;;;;6.13;4.70;;;3.20;99.90;;;;;;5012808;28;20291;-86
2021/01/27 13:20:01;;;;;;;5.97;4.63;;;3.20;99.90;;;;;;5013221;28;20234;-87
2021/01/27 13:22:27;;;;;;;5.73;4.20;;;3.50;99.90;;;;;;5012361;28;20631;-86